sensor_id;sensor_type;location;lat;lon;timestamp;P1;durP1;ratioP1;P2;durP2;ratioP2
11927;SDS011;6023;47.070;15.126;2022-09-28T00:01:21;3.60;;;2.17;;
11927;SDS011;6023;47.070;15.126;2022-09-28T00:03:51;3.43;;;2.13;;
11927;SDS011;6023;47.070;15.126;2022-09-28T00:06:22;2.87;;;2.10;;
11927;SDS011;6023;47.070;15.126;2022-09-28T00:08:50;5.43;;;3.60;;
11927;SDS011;6023;47.070;15.126;2022-09-28T00:11:19;2.90;;;2.40;;
11927;SDS011;6023;47.070;15.126;2022-09-28T00:13:50;2.90;;;2.20;;
11927;SDS011;6023;47.070;15.126;2022-09-28T00:16:24;3.03;;;1.70;;
11927;SDS011;6023;47.070;15.126;2022-09-28T00:18:54;2.60;;;1.70;;
11927;SDS011;6023;47.070;15.126;2022-09-28T00:21:24;3.33;;;1.83;;
11927;SDS011;6023;47.070;15.126;2022-09-28T00:23:54;1.60;;;1.50;;
11927;SDS011;6023;47.070;15.126;2022-09-28T00:26:41;2.47;;;1.50;;
11927;SDS011;6023;47.070;15.126;2022-09-28T00:29:13;2.47;;;1.80;;
11927;SDS011;6023;47.070;15.126;2022-09-28T00:31:50;2.57;;;2.00;;
11927;SDS011;6023;47.070;15.126;2022-09-28T00:34:19;2.43;;;1.90;;
11927;SDS011;6023;47.070;15.126;2022-09-28T00:36:47;3.70;;;2.30;;
11927;SDS011;6023;47.070;15.126;2022-09-28T00:39:16;3.23;;;1.53;;
11927;SDS011;6023;47.070;15.126;2022-09-28T00:41:45;2.73;;;1.40;;
11927;SDS011;6023;47.070;15.126;2022-09-28T00:47:18;1.80;;;1.10;;
11927;SDS011;6023;47.070;15.126;2022-09-28T00:50:04;1.23;;;0.87;;
11927;SDS011;6023;47.070;15.126;2022-09-28T00:52:37;1.20;;;0.90;;
11927;SDS011;6023;47.070;15.126;2022-09-28T00:55:09;1.57;;;0.93;;
11927;SDS011;6023;47.070;15.126;2022-09-28T00:57:41;1.53;;;0.50;;
11927;SDS011;6023;47.070;15.126;2022-09-28T01:00:12;0.87;;;0.50;;
11927;SDS011;6023;47.070;15.126;2022-09-28T01:02:42;2.57;;;0.70;;
11927;SDS011;6023;47.070;15.126;2022-09-28T01:05:11;1.50;;;0.50;;
11927;SDS011;6023;47.070;15.126;2022-09-28T01:07:41;0.43;;;0.43;;
11927;SDS011;6023;47.070;15.126;2022-09-28T01:10:10;0.57;;;0.40;;
11927;SDS011;6023;47.070;15.126;2022-09-28T01:12:39;1.80;;;0.40;;
11927;SDS011;6023;47.070;15.126;2022-09-28T01:15:08;0.40;;;0.40;;
11927;SDS011;6023;47.070;15.126;2022-09-28T01:17:40;0.90;;;0.70;;
11927;SDS011;6023;47.070;15.126;2022-09-28T01:20:22;1.37;;;0.90;;
11927;SDS011;6023;47.070;15.126;2022-09-28T01:23:03;2.47;;;2.03;;
11927;SDS011;6023;47.070;15.126;2022-09-28T01:25:50;5.57;;;3.00;;
11927;SDS011;6023;47.070;15.126;2022-09-28T01:28:24;3.10;;;2.23;;
11927;SDS011;6023;47.070;15.126;2022-09-28T01:30:58;1.60;;;1.50;;
11927;SDS011;6023;47.070;15.126;2022-09-28T01:33:31;2.73;;;1.70;;
11927;SDS011;6023;47.070;15.126;2022-09-28T01:36:05;5.03;;;4.27;;
11927;SDS011;6023;47.070;15.126;2022-09-28T01:38:38;5.13;;;3.60;;
11927;SDS011;6023;47.070;15.126;2022-09-28T01:41:09;5.30;;;3.63;;
11927;SDS011;6023;47.070;15.126;2022-09-28T01:43:39;4.10;;;3.20;;
11927;SDS011;6023;47.070;15.126;2022-09-28T01:46:11;3.83;;;3.03;;
11927;SDS011;6023;47.070;15.126;2022-09-28T01:48:42;3.33;;;2.67;;
11927;SDS011;6023;47.070;15.126;2022-09-28T01:51:15;2.93;;;2.57;;
11927;SDS011;6023;47.070;15.126;2022-09-28T01:53:47;4.33;;;2.60;;
11927;SDS011;6023;47.070;15.126;2022-09-28T01:56:20;1.80;;;1.70;;
11927;SDS011;6023;47.070;15.126;2022-09-28T01:58:54;2.20;;;1.37;;
11927;SDS011;6023;47.070;15.126;2022-09-28T02:01:25;1.70;;;1.30;;
11927;SDS011;6023;47.070;15.126;2022-09-28T02:03:56;1.20;;;1.10;;
11927;SDS011;6023;47.070;15.126;2022-09-28T02:06:30;1.00;;;1.00;;
11927;SDS011;6023;47.070;15.126;2022-09-28T02:09:02;1.83;;;1.20;;
11927;SDS011;6023;47.070;15.126;2022-09-28T02:11:33;2.10;;;1.33;;
11927;SDS011;6023;47.070;15.126;2022-09-28T02:14:05;1.53;;;1.10;;
11927;SDS011;6023;47.070;15.126;2022-09-28T02:16:36;1.20;;;1.10;;
11927;SDS011;6023;47.070;15.126;2022-09-28T02:19:07;0.80;;;0.80;;
11927;SDS011;6023;47.070;15.126;2022-09-28T02:21:40;0.90;;;0.90;;
11927;SDS011;6023;47.070;15.126;2022-09-28T02:24:13;1.60;;;0.97;;
11927;SDS011;6023;47.070;15.126;2022-09-28T02:26:47;6.23;;;4.13;;
11927;SDS011;6023;47.070;15.126;2022-09-28T02:29:18;5.10;;;3.77;;
11927;SDS011;6023;47.070;15.126;2022-09-28T02:31:46;5.30;;;2.10;;
11927;SDS011;6023;47.070;15.126;2022-09-28T02:34:15;1.90;;;1.80;;
11927;SDS011;6023;47.070;15.126;2022-09-28T02:36:44;3.70;;;1.70;;
11927;SDS011;6023;47.070;15.126;2022-09-28T02:39:13;2.60;;;1.60;;
11927;SDS011;6023;47.070;15.126;2022-09-28T02:41:47;0.97;;;0.93;;
11927;SDS011;6023;47.070;15.126;2022-09-28T02:44:27;0.73;;;0.73;;
11927;SDS011;6023;47.070;15.126;2022-09-28T02:47:03;1.07;;;0.90;;
11927;SDS011;6023;47.070;15.126;2022-09-28T02:49:36;0.57;;;0.57;;
11927;SDS011;6023;47.070;15.126;2022-09-28T02:52:20;0.87;;;0.80;;
11927;SDS011;6023;47.070;15.126;2022-09-28T02:55:05;1.17;;;0.70;;
11927;SDS011;6023;47.070;15.126;2022-09-28T02:57:55;0.77;;;0.77;;
11927;SDS011;6023;47.070;15.126;2022-09-28T03:00:39;0.80;;;0.80;;
11927;SDS011;6023;47.070;15.126;2022-09-28T03:03:11;1.80;;;1.03;;
11927;SDS011;6023;47.070;15.126;2022-09-28T03:05:46;1.47;;;1.37;;
11927;SDS011;6023;47.070;15.126;2022-09-28T03:08:21;3.30;;;2.20;;
11927;SDS011;6023;47.070;15.126;2022-09-28T03:10:52;3.70;;;2.30;;
11927;SDS011;6023;47.070;15.126;2022-09-28T03:13:23;3.10;;;2.30;;
11927;SDS011;6023;47.070;15.126;2022-09-28T03:16:02;3.57;;;2.30;;
11927;SDS011;6023;47.070;15.126;2022-09-28T03:18:36;3.70;;;2.73;;
11927;SDS011;6023;47.070;15.126;2022-09-28T03:21:04;8.83;;;5.23;;
11927;SDS011;6023;47.070;15.126;2022-09-28T03:23:33;13.87;;;10.87;;
11927;SDS011;6023;47.070;15.126;2022-09-28T03:26:01;7.33;;;5.57;;
11927;SDS011;6023;47.070;15.126;2022-09-28T03:28:30;4.07;;;2.93;;
11927;SDS011;6023;47.070;15.126;2022-09-28T03:31:01;3.10;;;2.20;;
11927;SDS011;6023;47.070;15.126;2022-09-28T03:33:30;9.37;;;7.40;;
11927;SDS011;6023;47.070;15.126;2022-09-28T03:35:59;17.37;;;14.43;;
11927;SDS011;6023;47.070;15.126;2022-09-28T03:38:27;17.07;;;13.80;;
11927;SDS011;6023;47.070;15.126;2022-09-28T03:40:56;8.57;;;7.20;;
11927;SDS011;6023;47.070;15.126;2022-09-28T03:43:26;5.70;;;3.40;;
11927;SDS011;6023;47.070;15.126;2022-09-28T03:45:57;2.33;;;2.10;;
11927;SDS011;6023;47.070;15.126;2022-09-28T03:48:28;1.90;;;1.70;;
11927;SDS011;6023;47.070;15.126;2022-09-28T03:51:00;1.47;;;1.23;;
11927;SDS011;6023;47.070;15.126;2022-09-28T03:53:29;2.50;;;1.50;;
11927;SDS011;6023;47.070;15.126;2022-09-28T03:56:01;10.07;;;7.40;;
11927;SDS011;6023;47.070;15.126;2022-09-28T03:58:30;6.77;;;5.40;;
11927;SDS011;6023;47.070;15.126;2022-09-28T04:01:01;3.00;;;2.70;;
11927;SDS011;6023;47.070;15.126;2022-09-28T04:03:32;1.53;;;1.43;;
11927;SDS011;6023;47.070;15.126;2022-09-28T04:06:01;1.73;;;1.10;;
11927;SDS011;6023;47.070;15.126;2022-09-28T04:08:29;1.60;;;1.20;;
11927;SDS011;6023;47.070;15.126;2022-09-28T04:10:58;1.90;;;1.70;;
11927;SDS011;6023;47.070;15.126;2022-09-28T04:13:27;14.73;;;10.87;;
11927;SDS011;6023;47.070;15.126;2022-09-28T04:15:57;6.13;;;5.30;;
11927;SDS011;6023;47.070;15.126;2022-09-28T04:18:26;2.97;;;2.60;;
11927;SDS011;6023;47.070;15.126;2022-09-28T04:21:00;1.90;;;1.50;;
11927;SDS011;6023;47.070;15.126;2022-09-28T04:23:32;1.10;;;1.10;;
11927;SDS011;6023;47.070;15.126;2022-09-28T04:26:02;0.90;;;0.90;;
11927;SDS011;6023;47.070;15.126;2022-09-28T04:28:31;2.40;;;1.10;;
11927;SDS011;6023;47.070;15.126;2022-09-28T04:31:17;3.00;;;1.40;;
11927;SDS011;6023;47.070;15.126;2022-09-28T04:33:47;1.70;;;1.10;;
11927;SDS011;6023;47.070;15.126;2022-09-28T04:36:17;1.27;;;1.17;;
11927;SDS011;6023;47.070;15.126;2022-09-28T04:38:46;2.33;;;0.90;;
11927;SDS011;6023;47.070;15.126;2022-09-28T04:41:19;1.80;;;1.00;;
11927;SDS011;6023;47.070;15.126;2022-09-28T04:43:48;1.23;;;1.10;;
11927;SDS011;6023;47.070;15.126;2022-09-28T04:46:17;1.83;;;1.30;;
11927;SDS011;6023;47.070;15.126;2022-09-28T04:48:46;4.43;;;2.03;;
11927;SDS011;6023;47.070;15.126;2022-09-28T04:51:14;3.80;;;1.60;;
11927;SDS011;6023;47.070;15.126;2022-09-28T04:53:44;3.30;;;2.37;;
11927;SDS011;6023;47.070;15.126;2022-09-28T04:56:13;4.07;;;2.30;;
11927;SDS011;6023;47.070;15.126;2022-09-28T04:58:43;2.43;;;1.80;;
11927;SDS011;6023;47.070;15.126;2022-09-28T05:01:18;1.50;;;1.40;;
11927;SDS011;6023;47.070;15.126;2022-09-28T05:03:49;1.00;;;1.00;;
11927;SDS011;6023;47.070;15.126;2022-09-28T05:06:17;4.40;;;1.50;;
11927;SDS011;6023;47.070;15.126;2022-09-28T05:08:49;3.33;;;1.33;;
11927;SDS011;6023;47.070;15.126;2022-09-28T05:11:19;2.33;;;1.40;;
11927;SDS011;6023;47.070;15.126;2022-09-28T05:13:47;2.90;;;1.70;;
11927;SDS011;6023;47.070;15.126;2022-09-28T05:16:16;1.60;;;1.50;;
11927;SDS011;6023;47.070;15.126;2022-09-28T05:18:46;3.63;;;2.03;;
11927;SDS011;6023;47.070;15.126;2022-09-28T05:21:14;3.35;;;1.80;;
11927;SDS011;6023;47.070;15.126;2022-09-28T05:23:46;4.20;;;2.10;;
11927;SDS011;6023;47.070;15.126;2022-09-28T05:26:16;3.20;;;1.73;;
11927;SDS011;6023;47.070;15.126;2022-09-28T05:28:45;3.60;;;1.80;;
11927;SDS011;6023;47.070;15.126;2022-09-28T05:31:14;3.03;;;1.40;;
11927;SDS011;6023;47.070;15.126;2022-09-28T05:33:42;1.93;;;1.10;;
11927;SDS011;6023;47.070;15.126;2022-09-28T05:36:11;3.90;;;1.67;;
11927;SDS011;6023;47.070;15.126;2022-09-28T05:38:39;5.33;;;1.80;;
11927;SDS011;6023;47.070;15.126;2022-09-28T05:41:08;5.37;;;2.67;;
11927;SDS011;6023;47.070;15.126;2022-09-28T05:43:38;14.40;;;9.40;;
11927;SDS011;6023;47.070;15.126;2022-09-28T05:46:06;13.67;;;9.10;;
11927;SDS011;6023;47.070;15.126;2022-09-28T05:48:35;17.00;;;9.47;;
11927;SDS011;6023;47.070;15.126;2022-09-28T05:51:03;25.27;;;16.33;;
11927;SDS011;6023;47.070;15.126;2022-09-28T05:53:32;25.87;;;16.83;;
11927;SDS011;6023;47.070;15.126;2022-09-28T05:56:00;20.43;;;12.63;;
11927;SDS011;6023;47.070;15.126;2022-09-28T05:58:29;36.00;;;24.13;;
11927;SDS011;6023;47.070;15.126;2022-09-28T06:00:59;51.47;;;36.17;;
11927;SDS011;6023;47.070;15.126;2022-09-28T06:03:27;62.83;;;45.20;;
11927;SDS011;6023;47.070;15.126;2022-09-28T06:05:58;39.60;;;28.23;;
11927;SDS011;6023;47.070;15.126;2022-09-28T06:08:27;10.87;;;7.10;;
11927;SDS011;6023;47.070;15.126;2022-09-28T06:10:58;27.97;;;20.33;;
11927;SDS011;6023;47.070;15.126;2022-09-28T06:13:27;20.87;;;14.70;;
11927;SDS011;6023;47.070;15.126;2022-09-28T06:15:55;14.37;;;9.53;;
11927;SDS011;6023;47.070;15.126;2022-09-28T06:18:25;13.17;;;9.27;;
11927;SDS011;6023;47.070;15.126;2022-09-28T06:20:54;7.00;;;4.00;;
11927;SDS011;6023;47.070;15.126;2022-09-28T06:23:22;7.63;;;4.73;;
11927;SDS011;6023;47.070;15.126;2022-09-28T06:25:51;7.37;;;4.40;;
11927;SDS011;6023;47.070;15.126;2022-09-28T06:28:19;5.00;;;3.10;;
11927;SDS011;6023;47.070;15.126;2022-09-28T06:30:48;9.00;;;4.57;;
11927;SDS011;6023;47.070;15.126;2022-09-28T06:33:16;5.80;;;3.80;;
11927;SDS011;6023;47.070;15.126;2022-09-28T06:35:46;6.67;;;4.90;;
11927;SDS011;6023;47.070;15.126;2022-09-28T06:38:15;7.27;;;3.80;;
11927;SDS011;6023;47.070;15.126;2022-09-28T06:40:43;5.30;;;3.67;;
11927;SDS011;6023;47.070;15.126;2022-09-28T06:43:12;4.93;;;3.63;;
11927;SDS011;6023;47.070;15.126;2022-09-28T06:45:42;7.27;;;5.03;;
11927;SDS011;6023;47.070;15.126;2022-09-28T06:48:10;9.13;;;5.87;;
11927;SDS011;6023;47.070;15.126;2022-09-28T06:50:39;7.73;;;5.27;;
11927;SDS011;6023;47.070;15.126;2022-09-28T06:53:10;6.00;;;4.57;;
11927;SDS011;6023;47.070;15.126;2022-09-28T06:55:40;6.70;;;3.47;;
11927;SDS011;6023;47.070;15.126;2022-09-28T06:58:10;5.17;;;3.50;;
11927;SDS011;6023;47.070;15.126;2022-09-28T07:00:40;4.67;;;3.03;;
11927;SDS011;6023;47.070;15.126;2022-09-28T07:03:10;6.13;;;3.37;;
11927;SDS011;6023;47.070;15.126;2022-09-28T07:05:40;4.17;;;2.90;;
11927;SDS011;6023;47.070;15.126;2022-09-28T07:08:10;3.17;;;2.47;;
11927;SDS011;6023;47.070;15.126;2022-09-28T07:10:40;3.93;;;2.60;;
11927;SDS011;6023;47.070;15.126;2022-09-28T07:13:09;4.30;;;2.50;;
11927;SDS011;6023;47.070;15.126;2022-09-28T07:15:59;3.03;;;1.90;;
11927;SDS011;6023;47.070;15.126;2022-09-28T07:18:28;2.43;;;1.80;;
11927;SDS011;6023;47.070;15.126;2022-09-28T07:20:56;3.57;;;1.60;;
11927;SDS011;6023;47.070;15.126;2022-09-28T07:23:27;1.50;;;1.37;;
11927;SDS011;6023;47.070;15.126;2022-09-28T07:25:57;3.07;;;1.70;;
11927;SDS011;6023;47.070;15.126;2022-09-28T07:28:34;1.40;;;1.30;;
11927;SDS011;6023;47.070;15.126;2022-09-28T07:31:06;2.83;;;1.60;;
11927;SDS011;6023;47.070;15.126;2022-09-28T07:33:36;2.00;;;1.63;;
11927;SDS011;6023;47.070;15.126;2022-09-28T07:36:04;2.20;;;1.43;;
11927;SDS011;6023;47.070;15.126;2022-09-28T07:38:34;2.07;;;1.87;;
11927;SDS011;6023;47.070;15.126;2022-09-28T07:41:04;5.07;;;4.00;;
11927;SDS011;6023;47.070;15.126;2022-09-28T07:43:37;3.90;;;3.20;;
11927;SDS011;6023;47.070;15.126;2022-09-28T07:46:06;3.33;;;2.30;;
11927;SDS011;6023;47.070;15.126;2022-09-28T07:48:38;2.30;;;2.07;;
11927;SDS011;6023;47.070;15.126;2022-09-28T07:51:07;3.87;;;2.30;;
11927;SDS011;6023;47.070;15.126;2022-09-28T07:53:38;6.13;;;4.60;;
11927;SDS011;6023;47.070;15.126;2022-09-28T07:56:06;4.93;;;3.00;;
11927;SDS011;6023;47.070;15.126;2022-09-28T07:58:36;4.43;;;2.40;;
11927;SDS011;6023;47.070;15.126;2022-09-28T08:01:05;4.80;;;2.67;;
11927;SDS011;6023;47.070;15.126;2022-09-28T08:03:36;2.93;;;2.60;;
11927;SDS011;6023;47.070;15.126;2022-09-28T08:06:05;4.27;;;2.30;;
11927;SDS011;6023;47.070;15.126;2022-09-28T08:08:39;4.00;;;2.10;;
11927;SDS011;6023;47.070;15.126;2022-09-28T08:11:11;3.10;;;1.90;;
11927;SDS011;6023;47.070;15.126;2022-09-28T08:13:40;4.07;;;2.00;;
11927;SDS011;6023;47.070;15.126;2022-09-28T08:16:10;2.33;;;1.73;;
11927;SDS011;6023;47.070;15.126;2022-09-28T08:18:39;2.30;;;1.70;;
11927;SDS011;6023;47.070;15.126;2022-09-28T08:21:08;2.33;;;1.70;;
11927;SDS011;6023;47.070;15.126;2022-09-28T08:23:56;1.80;;;1.70;;
11927;SDS011;6023;47.070;15.126;2022-09-28T08:26:24;6.00;;;1.70;;
11927;SDS011;6023;47.070;15.126;2022-09-28T08:28:54;1.93;;;1.50;;
11927;SDS011;6023;47.070;15.126;2022-09-28T08:31:23;1.90;;;1.63;;
11927;SDS011;6023;47.070;15.126;2022-09-28T08:33:51;3.47;;;1.70;;
11927;SDS011;6023;47.070;15.126;2022-09-28T08:36:20;1.60;;;1.50;;
11927;SDS011;6023;47.070;15.126;2022-09-28T08:38:48;1.77;;;1.50;;
11927;SDS011;6023;47.070;15.126;2022-09-28T08:41:20;1.60;;;1.50;;
11927;SDS011;6023;47.070;15.126;2022-09-28T08:43:56;3.03;;;1.60;;
11927;SDS011;6023;47.070;15.126;2022-09-28T08:46:30;1.90;;;1.80;;
11927;SDS011;6023;47.070;15.126;2022-09-28T08:49:02;2.40;;;1.60;;
11927;SDS011;6023;47.070;15.126;2022-09-28T08:51:53;1.33;;;1.17;;
11927;SDS011;6023;47.070;15.126;2022-09-28T08:54:26;1.40;;;1.30;;
11927;SDS011;6023;47.070;15.126;2022-09-28T08:57:00;3.30;;;1.43;;
11927;SDS011;6023;47.070;15.126;2022-09-28T08:59:30;1.43;;;1.33;;
11927;SDS011;6023;47.070;15.126;2022-09-28T09:02:11;2.93;;;1.57;;
11927;SDS011;6023;47.070;15.126;2022-09-28T09:04:43;2.37;;;1.50;;
11927;SDS011;6023;47.070;15.126;2022-09-28T09:07:19;4.83;;;1.53;;
11927;SDS011;6023;47.070;15.126;2022-09-28T09:09:55;2.10;;;1.60;;
11927;SDS011;6023;47.070;15.126;2022-09-28T09:12:33;1.57;;;1.40;;
11927;SDS011;6023;47.070;15.126;2022-09-28T09:15:09;1.20;;;1.10;;
11927;SDS011;6023;47.070;15.126;2022-09-28T09:18:00;1.97;;;1.30;;
11927;SDS011;6023;47.070;15.126;2022-09-28T09:20:37;2.30;;;2.10;;
11927;SDS011;6023;47.070;15.126;2022-09-28T09:23:13;2.00;;;1.80;;
11927;SDS011;6023;47.070;15.126;2022-09-28T09:25:47;1.97;;;1.70;;
11927;SDS011;6023;47.070;15.126;2022-09-28T09:31:30;2.23;;;1.70;;
11927;SDS011;6023;47.070;15.126;2022-09-28T09:37:13;2.10;;;1.37;;
11927;SDS011;6023;47.070;15.126;2022-09-28T09:40:01;2.50;;;1.40;;
11927;SDS011;6023;47.070;15.126;2022-09-28T09:42:46;3.23;;;2.53;;
11927;SDS011;6023;47.070;15.126;2022-09-28T09:45:30;1.73;;;1.40;;
11927;SDS011;6023;47.070;15.126;2022-09-28T09:48:05;1.67;;;1.57;;
11927;SDS011;6023;47.070;15.126;2022-09-28T09:50:38;1.77;;;1.50;;
11927;SDS011;6023;47.070;15.126;2022-09-28T09:53:12;2.13;;;1.90;;
11927;SDS011;6023;47.070;15.126;2022-09-28T09:55:44;2.80;;;2.00;;
11927;SDS011;6023;47.070;15.126;2022-09-28T09:58:14;1.80;;;1.70;;
11927;SDS011;6023;47.070;15.126;2022-09-28T10:00:49;4.43;;;2.10;;
11927;SDS011;6023;47.070;15.126;2022-09-28T10:03:20;2.17;;;1.80;;
11927;SDS011;6023;47.070;15.126;2022-09-28T10:06:00;3.03;;;1.90;;
11927;SDS011;6023;47.070;15.126;2022-09-28T10:08:32;2.77;;;1.80;;
11927;SDS011;6023;47.070;15.126;2022-09-28T10:11:03;1.70;;;1.60;;
11927;SDS011;6023;47.070;15.126;2022-09-28T10:13:34;1.83;;;1.73;;
11927;SDS011;6023;47.070;15.126;2022-09-28T10:16:05;2.17;;;1.97;;
11927;SDS011;6023;47.070;15.126;2022-09-28T10:18:33;2.40;;;1.80;;
11927;SDS011;6023;47.070;15.126;2022-09-28T10:21:02;3.03;;;2.20;;
11927;SDS011;6023;47.070;15.126;2022-09-28T10:23:32;2.23;;;2.00;;
11927;SDS011;6023;47.070;15.126;2022-09-28T10:26:05;3.33;;;2.30;;
11927;SDS011;6023;47.070;15.126;2022-09-28T10:28:38;2.57;;;2.17;;
11927;SDS011;6023;47.070;15.126;2022-09-28T10:34:02;1.67;;;1.57;;
11927;SDS011;6023;47.070;15.126;2022-09-28T10:36:30;2.53;;;1.80;;
11927;SDS011;6023;47.070;15.126;2022-09-28T10:39:04;1.97;;;1.80;;
11927;SDS011;6023;47.070;15.126;2022-09-28T10:41:32;2.27;;;1.63;;
11927;SDS011;6023;47.070;15.126;2022-09-28T10:44:01;3.73;;;1.87;;
11927;SDS011;6023;47.070;15.126;2022-09-28T10:46:35;3.00;;;1.70;;
11927;SDS011;6023;47.070;15.126;2022-09-28T10:49:06;1.87;;;1.57;;
11927;SDS011;6023;47.070;15.126;2022-09-28T10:51:39;1.87;;;1.63;;
11927;SDS011;6023;47.070;15.126;2022-09-28T10:54:12;3.27;;;2.10;;
11927;SDS011;6023;47.070;15.126;2022-09-28T10:56:43;2.73;;;2.53;;
11927;SDS011;6023;47.070;15.126;2022-09-28T10:59:21;2.73;;;2.30;;
11927;SDS011;6023;47.070;15.126;2022-09-28T11:02:08;3.13;;;2.60;;
11927;SDS011;6023;47.070;15.126;2022-09-28T11:04:48;4.37;;;2.30;;
11927;SDS011;6023;47.070;15.126;2022-09-28T11:07:18;2.80;;;2.40;;
11927;SDS011;6023;47.070;15.126;2022-09-28T11:09:49;2.60;;;2.40;;
11927;SDS011;6023;47.070;15.126;2022-09-28T11:12:18;2.30;;;2.10;;
11927;SDS011;6023;47.070;15.126;2022-09-28T11:14:48;2.60;;;2.40;;
11927;SDS011;6023;47.070;15.126;2022-09-28T11:17:25;3.93;;;2.70;;
11927;SDS011;6023;47.070;15.126;2022-09-28T11:19:55;4.70;;;3.20;;
11927;SDS011;6023;47.070;15.126;2022-09-28T11:22:26;2.30;;;2.10;;
11927;SDS011;6023;47.070;15.126;2022-09-28T11:25:19;2.40;;;2.20;;
11927;SDS011;6023;47.070;15.126;2022-09-28T11:27:56;2.50;;;2.10;;
11927;SDS011;6023;47.070;15.126;2022-09-28T11:30:27;3.87;;;2.20;;
11927;SDS011;6023;47.070;15.126;2022-09-28T11:33:01;3.37;;;2.90;;
11927;SDS011;6023;47.070;15.126;2022-09-28T11:35:35;4.10;;;3.70;;
11927;SDS011;6023;47.070;15.126;2022-09-28T11:38:21;2.43;;;2.23;;
11927;SDS011;6023;47.070;15.126;2022-09-28T11:41:07;4.93;;;4.43;;
11927;SDS011;6023;47.070;15.126;2022-09-28T11:43:57;4.43;;;3.20;;
11927;SDS011;6023;47.070;15.126;2022-09-28T11:46:33;2.20;;;2.00;;
11927;SDS011;6023;47.070;15.126;2022-09-28T11:49:14;1.93;;;1.83;;
11927;SDS011;6023;47.070;15.126;2022-09-28T11:51:50;2.37;;;1.80;;
11927;SDS011;6023;47.070;15.126;2022-09-28T11:54:22;1.60;;;1.50;;
11927;SDS011;6023;47.070;15.126;2022-09-28T11:56:54;1.97;;;1.40;;
11927;SDS011;6023;47.070;15.126;2022-09-28T11:59:25;2.80;;;1.40;;
11927;SDS011;6023;47.070;15.126;2022-09-28T12:01:56;1.70;;;1.60;;
11927;SDS011;6023;47.070;15.126;2022-09-28T12:04:27;2.00;;;1.63;;
11927;SDS011;6023;47.070;15.126;2022-09-28T12:07:00;1.83;;;1.50;;
11927;SDS011;6023;47.070;15.126;2022-09-28T12:09:33;2.23;;;1.80;;
11927;SDS011;6023;47.070;15.126;2022-09-28T12:12:05;2.07;;;1.70;;
11927;SDS011;6023;47.070;15.126;2022-09-28T12:14:38;2.13;;;1.60;;
11927;SDS011;6023;47.070;15.126;2022-09-28T12:17:08;2.77;;;2.00;;
11927;SDS011;6023;47.070;15.126;2022-09-28T12:19:47;2.17;;;1.70;;
11927;SDS011;6023;47.070;15.126;2022-09-28T12:22:19;2.40;;;2.20;;
11927;SDS011;6023;47.070;15.126;2022-09-28T12:24:51;2.20;;;2.00;;
11927;SDS011;6023;47.070;15.126;2022-09-28T12:27:23;1.97;;;1.87;;
11927;SDS011;6023;47.070;15.126;2022-09-28T12:29:56;3.07;;;2.00;;
11927;SDS011;6023;47.070;15.126;2022-09-28T12:32:32;4.33;;;2.13;;
11927;SDS011;6023;47.070;15.126;2022-09-28T12:35:10;2.40;;;2.20;;
11927;SDS011;6023;47.070;15.126;2022-09-28T12:37:44;3.70;;;2.13;;
11927;SDS011;6023;47.070;15.126;2022-09-28T12:43:12;2.33;;;2.13;;
11927;SDS011;6023;47.070;15.126;2022-09-28T12:45:58;4.03;;;2.33;;
11927;SDS011;6023;47.070;15.126;2022-09-28T12:48:53;3.43;;;2.40;;
11927;SDS011;6023;47.070;15.126;2022-09-28T12:51:49;6.83;;;4.50;;
11927;SDS011;6023;47.070;15.126;2022-09-28T12:54:32;3.00;;;2.70;;
11927;SDS011;6023;47.070;15.126;2022-09-28T12:57:17;3.40;;;3.10;;
11927;SDS011;6023;47.070;15.126;2022-09-28T12:59:59;2.57;;;2.37;;
11927;SDS011;6023;47.070;15.126;2022-09-28T13:02:37;4.27;;;3.27;;
11927;SDS011;6023;47.070;15.126;2022-09-28T13:05:26;4.03;;;3.40;;
11927;SDS011;6023;47.070;15.126;2022-09-28T13:08:03;3.83;;;3.43;;
11927;SDS011;6023;47.070;15.126;2022-09-28T13:10:35;3.50;;;2.93;;
11927;SDS011;6023;47.070;15.126;2022-09-28T13:13:15;3.63;;;3.10;;
11927;SDS011;6023;47.070;15.126;2022-09-28T13:15:51;3.10;;;2.80;;
11927;SDS011;6023;47.070;15.126;2022-09-28T13:18:24;3.43;;;2.77;;
11927;SDS011;6023;47.070;15.126;2022-09-28T13:21:02;4.57;;;3.10;;
11927;SDS011;6023;47.070;15.126;2022-09-28T13:23:43;3.20;;;2.90;;
11927;SDS011;6023;47.070;15.126;2022-09-28T13:26:16;3.83;;;3.43;;
11927;SDS011;6023;47.070;15.126;2022-09-28T13:28:48;6.93;;;3.60;;
11927;SDS011;6023;47.070;15.126;2022-09-28T13:31:21;4.80;;;3.20;;
11927;SDS011;6023;47.070;15.126;2022-09-28T13:33:58;4.27;;;2.70;;
11927;SDS011;6023;47.070;15.126;2022-09-28T13:36:35;3.07;;;2.77;;
11927;SDS011;6023;47.070;15.126;2022-09-28T13:42:03;3.90;;;3.20;;
11927;SDS011;6023;47.070;15.126;2022-09-28T13:47:43;3.17;;;2.87;;
11927;SDS011;6023;47.070;15.126;2022-09-28T13:50:26;3.53;;;2.80;;
11927;SDS011;6023;47.070;15.126;2022-09-28T13:53:03;4.93;;;3.80;;
11927;SDS011;6023;47.070;15.126;2022-09-28T13:55:46;3.13;;;2.77;;
11927;SDS011;6023;47.070;15.126;2022-09-28T13:58:20;14.67;;;11.03;;
11927;SDS011;6023;47.070;15.126;2022-09-28T14:00:52;3.50;;;3.20;;
11927;SDS011;6023;47.070;15.126;2022-09-28T14:03:26;4.63;;;2.60;;
11927;SDS011;6023;47.070;15.126;2022-09-28T14:06:19;2.93;;;2.57;;
11927;SDS011;6023;47.070;15.126;2022-09-28T14:09:05;3.30;;;2.70;;
11927;SDS011;6023;47.070;15.126;2022-09-28T14:11:58;2.50;;;2.30;;
11927;SDS011;6023;47.070;15.126;2022-09-28T14:20:24;3.73;;;2.70;;
11927;SDS011;6023;47.070;15.126;2022-09-28T14:23:08;3.40;;;2.63;;
11927;SDS011;6023;47.070;15.126;2022-09-28T14:26:01;3.10;;;2.80;;
11927;SDS011;6023;47.070;15.126;2022-09-28T14:28:48;3.40;;;2.50;;
11927;SDS011;6023;47.070;15.126;2022-09-28T14:31:24;6.03;;;3.10;;
11927;SDS011;6023;47.070;15.126;2022-09-28T14:33:55;2.87;;;2.57;;
11927;SDS011;6023;47.070;15.126;2022-09-28T14:36:25;3.27;;;2.40;;
11927;SDS011;6023;47.070;15.126;2022-09-28T14:39:18;2.60;;;2.40;;
11927;SDS011;6023;47.070;15.126;2022-09-28T14:42:09;3.50;;;3.00;;
11927;SDS011;6023;47.070;15.126;2022-09-28T14:48:13;4.20;;;2.63;;
11927;SDS011;6023;47.070;15.126;2022-09-28T14:50:45;3.97;;;2.97;;
11927;SDS011;6023;47.070;15.126;2022-09-28T14:53:19;3.97;;;2.90;;
11927;SDS011;6023;47.070;15.126;2022-09-28T14:55:52;3.23;;;2.60;;
11927;SDS011;6023;47.070;15.126;2022-09-28T14:58:22;3.10;;;2.80;;
11927;SDS011;6023;47.070;15.126;2022-09-28T15:00:57;2.67;;;2.47;;
11927;SDS011;6023;47.070;15.126;2022-09-28T15:03:29;3.67;;;2.90;;
11927;SDS011;6023;47.070;15.126;2022-09-28T15:06:00;5.20;;;2.83;;
11927;SDS011;6023;47.070;15.126;2022-09-28T15:08:35;4.07;;;2.83;;
11927;SDS011;6023;47.070;15.126;2022-09-28T15:11:05;5.17;;;3.33;;
11927;SDS011;6023;47.070;15.126;2022-09-28T15:13:39;3.50;;;3.20;;
11927;SDS011;6023;47.070;15.126;2022-09-28T15:16:09;5.20;;;3.10;;
11927;SDS011;6023;47.070;15.126;2022-09-28T15:21:44;3.07;;;2.77;;
11927;SDS011;6023;47.070;15.126;2022-09-28T15:24:24;3.17;;;2.90;;
11927;SDS011;6023;47.070;15.126;2022-09-28T15:26:58;3.00;;;2.70;;
11927;SDS011;6023;47.070;15.126;2022-09-28T15:29:27;3.37;;;2.90;;
11927;SDS011;6023;47.070;15.126;2022-09-28T15:32:00;5.50;;;3.30;;
11927;SDS011;6023;47.070;15.126;2022-09-28T15:34:30;3.63;;;2.67;;
11927;SDS011;6023;47.070;15.126;2022-09-28T15:37:18;4.07;;;2.60;;
11927;SDS011;6023;47.070;15.126;2022-09-28T15:39:49;3.10;;;2.80;;
11927;SDS011;6023;47.070;15.126;2022-09-28T15:42:19;8.07;;;6.93;;
11927;SDS011;6023;47.070;15.126;2022-09-28T15:45:02;7.03;;;6.27;;
11927;SDS011;6023;47.070;15.126;2022-09-28T15:47:34;12.27;;;9.70;;
11927;SDS011;6023;47.070;15.126;2022-09-28T15:50:06;14.70;;;13.30;;
11927;SDS011;6023;47.070;15.126;2022-09-28T15:52:35;8.30;;;7.20;;
11927;SDS011;6023;47.070;15.126;2022-09-28T15:55:15;8.60;;;6.63;;